This site, now in its 15th season, is a labour of love and fun from one of Ottawa's most avid time trialists and number crunchers. It adheres to and is permitted by the laws of Canada, promotes the objectives of every bicycle club whose results are shown, and is donated free of charge by myself for your enjoyment and usage. If you would like results from series you ride in to be shown here, give me (celia@drmath.ca) a shout!


Index Page
ATT OTT WTT AATT CFCTT VVVTT
Help resultformat:
Case-sensitive

OBC Open TT Series - 1994-Jun-16 - 15km (Rockliffe Pkwy) (EvtFactor = 0.9401)

Weather (18:00): Mostly Cloudy. Temp.: 26.5C, Humidity: 67%, DewPoint: 19.9C, Wind: NW 17km/h, Pressure: 100.49kPa, Visibility: 19.3km, Humidex: 34.
Weather (19:00): Mostly Cloudy. Temp.: 28.1C, Humidity: 61%, DewPoint: 19.8C, Wind: WSW 4km/h, Pressure: 100.49kPa, Visibility: 19.3km, Humidex: 35.
Weather (20:00): Mostly Cloudy. Temp.: 26.3C, Humidity: 68%, DewPoint: 19.9C, Wind: SW 4km/h, Pressure: 100.49kPa, Visibility: 24.1km, Humidex: 34.

Send photos with description (when/where/what) of yourself on or off of bike to celia@drmath.ca

 
 

BESTS?
 
1 White, Paul --- 20:11 44.591 1/61 OSEM 1/23  
2 Roy, Patrick OBC 20:14 44.481 2/61 OVAM 1/16 0.9852
3 Marois, Gilbert --- 20:19 44.299 3/61 XXM 1/1  
Y 4 Simpson, Bob OBC 20:27 44.010 4/61 OVBM 1/11 1.1866
5 Cowan, Norman  OBC 20:37 43.654 5/61 OVAM 2/16 1.0543
6 Georgas, Chris OBC 20:38 43.619 6/61 OVBM 2/11 1.0745
7 Hunter, Philip --- 20:43 43.443 7/61 OSEM 2/23 0.9270
8 Glover, Jim  OBC 20:50 43.200 8/61 OVAM 3/16 1.1830
9 Redding, Neil OBC 20:53 43.097 9/61 OVAM 4/16 1.0218
10 Harrington, Noel --- 20:56 42.994 10/61 OSEM 3/23 1.0096
11 St-Amour, Pierre OBC 21:08 42.587 11/61 OVAM 5/16 1.0952
12 Timleck, Andrew --- 21:12 42.453 12/61 OSEM 4/23 0.9859
13 Johns, Mike --- 21:14 42.386 13/61 OSEM 5/23 1.0237
Morvan, Jacques  OBC 21:14 42.386 13/61 OVBM 3/11 1.0822
15 Statchuk, Craig OBC 21:20 42.188 15/61 OVAM 6/16 1.0695
16 Aller, Brian --- 21:23 42.089 16/61 OVAM 7/16 1.0283
17 Archambault, Marc --- 21:24 42.056 17/61 OSEM 6/23 1.0693
18 Hinz, Richard OBC 21:27 41.958 18/61 OVAM 8/16 0.9654
19 Parkin, Brian OBC 21:32 41.796 19/61 OVAM 9/16  
20 Hicks, Bob  OBC 21:35 41.699 20/61 OVBM 4/11 1.1506
21 Martignago, Mike OBC 21:36 41.667 21/61 OVAM 10/16 1.1203
22 Smith, Ed --- 21:37 41.635 22/61 OSEM 7/23 0.9545
23 Holt, Robert --- 21:41 41.507 23/61 OSEM 8/23 1.0902
24 Pazdzior, Ellen  OBC 21:50 41.221 24/61 OVAF 1/3 1.0559
Thiffeault, Danny --- 21:50 41.221 24/61 OSEM 9/23  
26 Lau, Michael OBC 21:55 41.065 26/61 OSEM 10/23 1.0417
Leger, Jean-Marc --- 21:55 41.065 26/61 OSEM 10/23  
28 Guenette, Jean-Yves OBC 21:58 40.971 28/61 OVAM 11/16 1.0183
Moerman, Bram  OBC 21:58 40.971 28/61 OVBM 5/11 0.9819
30 Leach, Mike --- 22:12 40.541 30/61 OSEM 12/23 1.0365
31 Buffa, Alex  OBC 22:13 40.510 31/61 OSEM 13/23 1.0249
32 Austen, Ian  OBC 22:19 40.329 32/61 OVAM 12/16 1.1480
33 Budd, Daniel OBC 22:30 40.000 33/61 OSEM 14/23 1.0451
Murray, Ken --- 22:30 40.000 33/61 OJUM 1/1 1.0635
35 Munden, David --- 22:32 39.941 35/61 OSEM 15/23 1.3332
36 Murray, Val OBC 22:36 39.823 36/61 OCAM 1/1 1.3455
s 37 Ménard, Monique OBC 22:40 39.706 37/61 OSEF 1/2 1.1144
38 Stewart, Rob OBC 22:43 39.618 38/61 OVAM 13/16 1.0629
39 Romkey, Gary OBC 22:46 39.531 39/61 OVBM 6/11 1.0696
40 Humphreys, Les  OBC/ABC 22:52 39.359 40/61 OVBM 7/11 1.0716
41 Franks, Greg OBC 22:54 39.301 41/61 OVAM 14/16 1.0443
42 Fransham, Richard OBC 22:57 39.216 42/61 OVBM 8/11 1.0805
43 Bolduc, Robin --- 23:05 38.989 43/61 OSEM 16/23  
44 Bachman, Mike OBC 23:10 38.849 44/61 OVCM 1/2 1.0957
45 Burge, Larry  --- 23:12 38.793 45/61 OSEM 17/23  
46 Hicks, Terry --- 23:21 38.544 46/61 OVAM 15/16 1.1481
47 Berthelet, David OBC 23:23 38.489 47/61 OVBM 9/11 0.9788
48 Tamborine, Don --- 23:25 38.434 48/61 OVBM 10/11 1.0236
49 Barber, Brian --- 23:34 38.190 49/61 OSEM 18/23 1.0606
50 Aller, Mo OBC 23:36 38.136 50/61 OVCM 2/2 1.1120
51 Revesz, Erika  OBC 23:41 38.001 51/61 OVAF 2/3 1.0646
52 Weiman, David --- 24:09 37.267 52/61 OSEM 19/23 1.0441
53 Moxley, Don OBC 24:11 37.216 53/61 OVBM 11/11 0.9633
54 Menke, Kurt --- 24:13 37.164 54/61 OSEM 20/23  
55 Montpetit, Stephane --- 24:26 36.835 55/61 OSEM 21/23 1.0499
56 McInnis, Celia  OBC 24:51 36.217 56/61 OVAF 3/3 1.0848
57 Ajersch, Mary  OBC 25:24 35.433 57/61 OVBF 1/1 1.0644
58 James, Peter OBC 25:49 34.861 58/61 OVAM 16/16 1.0136
59 Soucy, Dominic --- 25:58 34.660 59/61 OSEM 22/23 1.2096
60 Perel, Fredd OBC 30:20 29.670 60/61 OSEM 23/23 1.4690
61 Jensen, Prapti OBC DNF   61/61 OSEF 2/2  
 
Average Speed of all of the above 60 finishes (900km in 22:29:09):40.025
>>>Average of the Average Speeds for these 60 finishes40.232<<<
 

The number of data records shown above is 61
The server processing of your query took: 2 wallclock secs ( 0.05 usr + 0.00 sys = 0.05 CPU)

     


Apr 1 (Good Friday) Apr 14 Apr 21 Apr 28
May 3 May 5 May 10 May 12 (22km) May 15 (40km) May 17 May 19 May 24 May 24 (10km) May 26 (cancelled) May 29 (40km)
Jun 2 Jun 5 (38km) Jun 7 Jun 9 Jun 14 (40km) Jun 14
  Jun 16  
Jun 21 Jun 21 Jun 23 Jun 26 (40km/80km) Jun 28 (40km) Jun 28 Jun 29
Jul 5 Jul 6 Jul 7 Jul 10 (22km) Jul 12 Jul 13 Jul 14 Jul 19 Jul 20 Jul 21 Jul 24 (38km) Jul 26 Jul 27 Jul 28
Aug 2 Aug 3 Aug 9 Aug 10 Aug 11 Aug 14 (40km/80km) Aug 16 Aug 17 Aug 18 Aug 20 (22km) Aug 23 Aug 24 Aug 28 (38km) Aug 30 (Invitational) Aug 31
Sep 1 Sep 6 Sep 8 Sep 13 Sep 20 Sep 25 (40km)

OTT Rankings
Best       Best by category
WTT Rankings for OBC Members
5 Best 15km     5 Best 15km by category
OBC Member Best Three 15km Rankings
Overall     by category
OBC BAR Ranking
Overall     by category     Rider "Consistency-Graph"
ABC BAR Ranking
Overall     by category     Rider "Consistency-Graph"
Other years
TT Calculator All TT People All TT events
ABC Home VVV Home
CKAP GOLD MEDAL
Other Links

Please send your comments and suggestions to: Celia McInnis
Copyright © 1998-2011 Celia McInnis. All rights reserved. Links are welcomed.